Rechercher aéroport 
image banner adimage banner adimage banner ad
image banner ad

84CA - Beverly Center

Situé à Los Angeles, United States

ICAO - 84CA, IATA -

Données fournies par Airmate  

Information générale

Coordonnées: N34°4'26" W118°22'39"
Élévation : 278 feet MSL.
Variation magnétique : 14° East
Voir autres Aéroports à California

Données opérationnelles

Special qualification required
Heure actuelle UTC:
Heure actuelle locale:
Météo à : KSMO - Santa Monica Muni ( 9 km )
METAR: KSMO 231451Z 17003KT 8SM CLR 17/16 A2993 RMK AO2 SLP133 T01720156 53002
TAF: KSMO 231304Z 2313/2412 VRB03KT P6SM SCT005 FM231600 VRB03KT P6SM SKC FM231800 23008KT P6SM SKC FM240300 VRB03KT P6SM SKC FM240900 VRB03KT P6SM OVC008
Voir NOTAMs / SUP AIP / TFR affectant cet aéroport [VIEW]
Fréquences de communication: [VIEW]

Pistes:

Coordonnées de l'aéroport

Adresse: Los Angeles United States

Vue satellite de 84CA